地図

経路データ

SID SEASON NUMBER BASIN SUBBASIN NAME ISO_TIME NATURE LAT LON WMO_WIND WMO_PRES WMO_AGENCY TRACK_TYPE DIST2LAND LANDFALL IFLAG USA_AGENCY USA_ATCF_ID USA_LAT USA_LON USA_RECORD USA_STATUS USA_WIND USA_PRES USA_SSHS USA_R34_NE USA_R34_SE USA_R34_SW USA_R34_NW USA_R50_NE USA_R50_SE USA_R50_SW USA_R50_NW USA_R64_NE USA_R64_SE USA_R64_SW USA_R64_NW USA_POCI USA_ROCI USA_RMW USA_EYE TOKYO_LAT TOKYO_LON TOKYO_GRADE TOKYO_WIND TOKYO_PRES TOKYO_R50_DIR TOKYO_R50_LONG TOKYO_R50_SHORT TOKYO_R30_DIR TOKYO_R30_LONG TOKYO_R30_SHORT TOKYO_LAND CMA_LAT CMA_LON CMA_CAT CMA_WIND CMA_PRES HKO_LAT HKO_LON HKO_CAT HKO_WIND HKO_PRES NEWDELHI_LAT NEWDELHI_LON NEWDELHI_GRADE NEWDELHI_WIND NEWDELHI_PRES NEWDELHI_CI NEWDELHI_DP NEWDELHI_POCI REUNION_LAT REUNION_LON REUNION_TYPE REUNION_WIND REUNION_PRES REUNION_TNUM REUNION_CI REUNION_RMW REUNION_R34_NE REUNION_R34_SE REUNION_R34_SW REUNION_R34_NW REUNION_R50_NE REUNION_R50_SE REUNION_R50_SW REUNION_R50_NW REUNION_R64_NE REUNION_R64_SE REUNION_R64_SW REUNION_R64_NW BOM_LAT BOM_LON BOM_TYPE BOM_WIND BOM_PRES BOM_TNUM BOM_CI BOM_RMW BOM_R34_NE BOM_R34_SE BOM_R34_SW BOM_R34_NW BOM_R50_NE BOM_R50_SE BOM_R50_SW BOM_R50_NW BOM_R64_NE BOM_R64_SE BOM_R64_SW BOM_R64_NW BOM_ROCI BOM_POCI BOM_EYE BOM_POS_METHOD BOM_PRES_METHOD NADI_LAT NADI_LON NADI_CAT NADI_WIND NADI_PRES WELLINGTON_LAT WELLINGTON_LON WELLINGTON_WIND WELLINGTON_PRES DS824_LAT DS824_LON DS824_STAGE DS824_WIND DS824_PRES TD9636_LAT TD9636_LON TD9636_STAGE TD9636_WIND TD9636_PRES TD9635_LAT TD9635_LON TD9635_WIND TD9635_PRES TD9635_ROCI NEUMANN_LAT NEUMANN_LON NEUMANN_CLASS NEUMANN_WIND NEUMANN_PRES MLC_LAT MLC_LON MLC_CLASS MLC_WIND MLC_PRES USA_GUST BOM_GUST BOM_GUST_PER REUNION_GUST REUNION_GUST_PER USA_SEAHGT USA_SEARAD_NE USA_SEARAD_SE USA_SEARAD_SW USA_SEARAD_NW STORM_SPEED STORM_DIR
1970046S25178 1970 21 SP MM NOT_NAMED 1970-02-14 12:00:00 TS -24.7000 178.100 main 715 715 O________OO___ jtwc_sh SH191970 -24.7000 178.100 -1 -24.7000 178.100 TC -24.7000 178.100 2 22 118
1970046S25178 1970 21 SP MM NOT_NAMED 1970-02-14 15:00:00 TS -25.2080 179.155 main 778 778 P________PP___ SH191970 -25.2267 179.170 -1 -25.2267 179.170 TC -25.1706 179.124 2 21 117
1970046S25178 1970 21 SP MM NOT_NAMED 1970-02-14 18:00:00 TS -25.6733 180.177 main 852 852 O________OP___ jtwc_sh SH191970 -25.7000 -179.800 -1 -25.7000 180.200 TC -25.6200 -179.868 2 20 116
1970046S25178 1970 21 SP MM NOT_NAMED 1970-02-14 21:00:00 TS -26.0693 181.130 main 921 921 P________PP___ SH191970 -26.0869 -178.854 -1 -26.0869 -178.854 TC -26.0342 -178.901 2 18 114
1970046S25178 1970 21 SP MM NOT_NAMED 1970-02-15 00:00:00 TS -26.4000 182.000 main 986 986 O________OO_O_ jtwc_sh SH191970 -26.4000 -178.000 -1 -26.4000 182.000 TC 35 -26.4000 -178.000 2 -26.4000 -178.000 TC 30 16 112
1970046S25178 1970 21 SP MM NOT_NAMED 1970-02-15 03:00:00 TS -26.6748 182.783 main 1049 1049 P________PP_P_ SH191970 -26.6642 -177.227 -1 -26.6642 -177.227 TC 35 -26.7093 -177.183 2 -26.6483 -177.251 TC 32 15 111
1970046S25178 1970 21 SP MM NOT_NAMED 1970-02-15 06:00:00 TS -26.9189 183.519 main 1099 1099 O________OP_O_ jtwc_sh SH191970 -26.9000 -176.500 -1 -26.9000 183.500 TC 35 -26.9709 -176.429 2 -26.9000 -176.500 TC 35 14 111
1970046S25178 1970 21 SP MM NOT_NAMED 1970-02-15 09:00:00 TS -27.1709 184.260 main 1167 1167 P________PP_P_ SH191970 -27.1646 -175.750 -1 -27.1646 -175.750 TC 35 -27.1972 -175.711 2 -27.1571 -175.750 TC 35 14 110
1970046S25178 1970 21 SP MM NOT_NAMED 1970-02-15 12:00:00 TS -27.4000 185.000 main 1223 1223 O________OO_O_ jtwc_sh SH191970 -27.4000 -175.000 -1 -27.4000 185.000 TC 35 -27.4000 -175.000 2 -27.4000 -175.000 TC 35 14 107
1970046S25178 1970 21 SP MM NOT_NAMED 1970-02-15 15:00:00 TS -27.5761 185.755 main 1286 1286 P________PP_P_ SH191970 -27.5571 -174.249 -1 -27.5571 -174.249 TC 35 -27.5756 -174.232 2 -27.6146 -174.250 TC 35 14 104
1970046S25178 1970 21 SP MM NOT_NAMED 1970-02-15 18:00:00 TS -27.7336 186.508 main 1335 1331 O________OP_O_ jtwc_sh SH191970 -27.7000 -173.500 -1 -27.7000 186.500 TC 35 -27.7343 -173.467 2 -27.8000 -173.500 TC 35 14 104
1970046S25178 1970 21 SP MM NOT_NAMED 1970-02-15 21:00:00 TS -27.9031 187.265 main 1359 1359 P________PP_P_ SH191970 -27.8847 -172.742 -1 -27.8847 -172.742 TC 35 -27.9008 -172.719 2 -27.9423 -172.734 TC 35 14 106
1970046S25178 1970 21 SP MM NOT_NAMED 1970-02-16 00:00:00 TS -28.1000 188.000 main 1381 1381 O________OO_O_ jtwc_sh SH191970 -28.1000 -172.000 -1 -28.1000 188.000 TC 35 -28.1000 -172.000 2 -28.1000 -172.000 TC 35 13 109
1970046S25178 1970 21 SP MM NOT_NAMED 1970-02-16 03:00:00 TS -28.3292 188.704 main 1406 1403 P________PP_P_ SH191970 -28.3272 -171.277 -1 -28.3272 -171.277 TC 35 -28.3429 -171.296 2 -28.3195 -171.335 TC 35 13 113
1970046S25178 1970 21 SP MM NOT_NAMED 1970-02-16 06:00:00 TS -28.6060 189.369 main 1425 1423 O________OP_O_ jtwc_sh SH191970 -28.6000 -170.600 -1 -28.6000 189.400 TC 35 -28.6241 -170.624 2 -28.6000 -170.700 TC 35 13 118
1970046S25178 1970 21 SP MM NOT_NAMED 1970-02-16 09:00:00 TS -28.9312 190.005 main 1440 1432 P________PP_P_ SH191970 -28.9271 -169.977 -1 -28.9271 -169.977 TC 35 -28.9432 -169.990 2 -28.9274 -170.035 TC 35 13 123
1970046S25178 1970 21 SP MM NOT_NAMED 1970-02-16 12:00:00 TS -29.3000 190.600 main 1450 1449 O________OO_O_ jtwc_sh SH191970 -29.3000 -169.400 -1 -29.3000 190.600 TC 35 -29.3000 -169.400 2 -29.3000 -169.400 TC 35 13 127
1970046S25178 1970 21 SP MM NOT_NAMED 1970-02-16 15:00:00 TS -29.6868 191.167 main 1463 1463 P________PP_P_ SH191970 -29.6848 -168.827 -1 -29.6848 -168.827 TC 35 -29.6927 -168.858 2 -29.6847 -168.820 TC 35 12 130
1970046S25178 1970 21 SP MM NOT_NAMED 1970-02-16 18:00:00 TS -30.1034 191.687 main 1471 1465 O________OP_O_ jtwc_sh SH191970 -30.1000 -168.300 -1 -30.1000 191.700 TC 35 -30.1135 -168.353 2 -30.1000 -168.300 TC 35 12 135
1970046S25178 1970 21 SP MM NOT_NAMED 1970-02-16 21:00:00 TS -30.5452 192.156 main 1482 1476 P________PP_P_ SH191970 -30.5427 -167.833 -1 -30.5427 -167.833 TC 35 -30.5526 -167.872 2 -30.5428 -167.836 TC 32 12 139
1970046S25178 1970 21 SP MM NOT_NAMED 1970-02-17 00:00:00 TS -31.0000 192.600 main 1481 O________OO_O_ jtwc_sh SH191970 -31.0000 -167.400 -1 -31.0000 192.600 TC 35 -31.0000 -167.400 2 -31.0000 -167.400 TC 30 12 140

デジタル台風データ・検索

IBTrACS Databaseについて

本データベースは、米国NOAAが公開する1842年以降の世界の熱帯低気圧のベストトラックデータアーカイブInternational Best Track Archive for Climate Stewardship (IBTrACS)を、ウェブで閲覧しやすい形式に変換したものです。

最終更新日:2021-10-08